sensor_id;sensor_type;location;lat;lon;timestamp;P1;durP1;ratioP1;P2;durP2;ratioP2
9310;SDS011;4694;52.464;13.480;2023-12-04T00:01:34;49.88;;;19.50;;
9310;SDS011;4694;52.464;13.480;2023-12-04T00:04:01;46.17;;;19.25;;
9310;SDS011;4694;52.464;13.480;2023-12-04T00:06:28;52.70;;;18.10;;
9310;SDS011;4694;52.464;13.480;2023-12-04T00:08:54;44.83;;;19.70;;
9310;SDS011;4694;52.464;13.480;2023-12-04T00:11:21;49.08;;;21.52;;
9310;SDS011;4694;52.464;13.480;2023-12-04T00:13:48;40.92;;;16.60;;
9310;SDS011;4694;52.464;13.480;2023-12-04T00:16:14;42.38;;;18.17;;
9310;SDS011;4694;52.464;13.480;2023-12-04T00:18:42;40.08;;;19.33;;
9310;SDS011;4694;52.464;13.480;2023-12-04T00:21:09;54.13;;;20.30;;
9310;SDS011;4694;52.464;13.480;2023-12-04T00:23:36;37.83;;;19.60;;
9310;SDS011;4694;52.464;13.480;2023-12-04T00:26:02;45.10;;;19.17;;
9310;SDS011;4694;52.464;13.480;2023-12-04T00:28:29;45.42;;;20.60;;
9310;SDS011;4694;52.464;13.480;2023-12-04T00:30:56;47.95;;;21.10;;
9310;SDS011;4694;52.464;13.480;2023-12-04T00:33:22;42.97;;;16.75;;
9310;SDS011;4694;52.464;13.480;2023-12-04T00:35:50;49.25;;;21.15;;
9310;SDS011;4694;52.464;13.480;2023-12-04T00:38:17;39.80;;;19.17;;
9310;SDS011;4694;52.464;13.480;2023-12-04T00:40:44;48.05;;;19.98;;
9310;SDS011;4694;52.464;13.480;2023-12-04T00:43:10;46.42;;;22.23;;
9310;SDS011;4694;52.464;13.480;2023-12-04T00:45:37;53.45;;;21.48;;
9310;SDS011;4694;52.464;13.480;2023-12-04T00:48:04;49.25;;;20.35;;
9310;SDS011;4694;52.464;13.480;2023-12-04T00:50:31;48.30;;;21.45;;
9310;SDS011;4694;52.464;13.480;2023-12-04T00:52:59;52.03;;;20.05;;
9310;SDS011;4694;52.464;13.480;2023-12-04T00:55:26;48.10;;;21.80;;
9310;SDS011;4694;52.464;13.480;2023-12-04T00:57:52;44.65;;;19.40;;
9310;SDS011;4694;52.464;13.480;2023-12-04T01:00:18;57.78;;;22.25;;
9310;SDS011;4694;52.464;13.480;2023-12-04T01:02:45;47.17;;;20.98;;
9310;SDS011;4694;52.464;13.480;2023-12-04T01:05:11;50.65;;;19.88;;
9310;SDS011;4694;52.464;13.480;2023-12-04T01:07:38;50.53;;;21.10;;
9310;SDS011;4694;52.464;13.480;2023-12-04T01:10:07;45.38;;;20.73;;
9310;SDS011;4694;52.464;13.480;2023-12-04T01:12:34;48.17;;;21.38;;
9310;SDS011;4694;52.464;13.480;2023-12-04T01:15:01;51.55;;;20.17;;
9310;SDS011;4694;52.464;13.480;2023-12-04T01:17:28;55.53;;;19.42;;
9310;SDS011;4694;52.464;13.480;2023-12-04T01:19:54;53.53;;;24.17;;
9310;SDS011;4694;52.464;13.480;2023-12-04T01:22:22;41.72;;;19.40;;
9310;SDS011;4694;52.464;13.480;2023-12-04T01:24:49;50.08;;;20.15;;
9310;SDS011;4694;52.464;13.480;2023-12-04T01:27:17;53.05;;;21.00;;
9310;SDS011;4694;52.464;13.480;2023-12-04T01:29:45;55.70;;;19.77;;
9310;SDS011;4694;52.464;13.480;2023-12-04T01:32:11;48.17;;;20.35;;
9310;SDS011;4694;52.464;13.480;2023-12-04T01:34:38;52.58;;;23.67;;
9310;SDS011;4694;52.464;13.480;2023-12-04T01:37:04;56.35;;;21.13;;
9310;SDS011;4694;52.464;13.480;2023-12-04T01:39:31;61.60;;;21.65;;
9310;SDS011;4694;52.464;13.480;2023-12-04T01:41:58;54.38;;;25.05;;
9310;SDS011;4694;52.464;13.480;2023-12-04T01:44:26;48.78;;;21.52;;
9310;SDS011;4694;52.464;13.480;2023-12-04T01:46:53;54.47;;;20.55;;
9310;SDS011;4694;52.464;13.480;2023-12-04T01:49:19;62.72;;;20.70;;
9310;SDS011;4694;52.464;13.480;2023-12-04T01:51:46;51.88;;;22.58;;
9310;SDS011;4694;52.464;13.480;2023-12-04T01:54:13;54.20;;;18.42;;
9310;SDS011;4694;52.464;13.480;2023-12-04T01:56:41;43.17;;;18.00;;
9310;SDS011;4694;52.464;13.480;2023-12-04T01:59:10;50.38;;;19.65;;
9310;SDS011;4694;52.464;13.480;2023-12-04T02:01:38;54.85;;;23.02;;
9310;SDS011;4694;52.464;13.480;2023-12-04T02:04:05;51.60;;;19.23;;
9310;SDS011;4694;52.464;13.480;2023-12-04T02:06:32;47.67;;;21.33;;
9310;SDS011;4694;52.464;13.480;2023-12-04T02:08:59;57.33;;;19.88;;
9310;SDS011;4694;52.464;13.480;2023-12-04T02:11:28;42.35;;;18.83;;
9310;SDS011;4694;52.464;13.480;2023-12-04T02:13:54;49.15;;;20.30;;
9310;SDS011;4694;52.464;13.480;2023-12-04T02:16:22;62.25;;;21.27;;
9310;SDS011;4694;52.464;13.480;2023-12-04T02:18:53;53.15;;;21.80;;
9310;SDS011;4694;52.464;13.480;2023-12-04T02:21:19;45.83;;;20.98;;
9310;SDS011;4694;52.464;13.480;2023-12-04T02:23:49;56.90;;;22.25;;
9310;SDS011;4694;52.464;13.480;2023-12-04T02:26:16;42.65;;;18.45;;
9310;SDS011;4694;52.464;13.480;2023-12-04T02:28:49;50.28;;;19.90;;
9310;SDS011;4694;52.464;13.480;2023-12-04T02:31:21;42.65;;;20.63;;
9310;SDS011;4694;52.464;13.480;2023-12-04T02:33:50;53.28;;;20.08;;
9310;SDS011;4694;52.464;13.480;2023-12-04T02:36:21;54.33;;;20.52;;
9310;SDS011;4694;52.464;13.480;2023-12-04T02:38:52;46.97;;;20.23;;
9310;SDS011;4694;52.464;13.480;2023-12-04T02:41:19;49.15;;;18.55;;
9310;SDS011;4694;52.464;13.480;2023-12-04T02:43:46;52.15;;;22.05;;
9310;SDS011;4694;52.464;13.480;2023-12-04T02:46:13;51.20;;;19.42;;
9310;SDS011;4694;52.464;13.480;2023-12-04T02:48:40;50.35;;;20.17;;
9310;SDS011;4694;52.464;13.480;2023-12-04T02:51:06;53.90;;;22.77;;
9310;SDS011;4694;52.464;13.480;2023-12-04T02:53:33;58.05;;;23.45;;
9310;SDS011;4694;52.464;13.480;2023-12-04T02:56:01;48.50;;;21.25;;
9310;SDS011;4694;52.464;13.480;2023-12-04T02:58:28;68.93;;;24.35;;
9310;SDS011;4694;52.464;13.480;2023-12-04T03:00:55;58.50;;;21.83;;
9310;SDS011;4694;52.464;13.480;2023-12-04T03:03:22;53.25;;;21.92;;
9310;SDS011;4694;52.464;13.480;2023-12-04T03:05:49;59.67;;;20.88;;
9310;SDS011;4694;52.464;13.480;2023-12-04T03:08:16;51.00;;;20.88;;
9310;SDS011;4694;52.464;13.480;2023-12-04T03:10:42;55.63;;;20.02;;
9310;SDS011;4694;52.464;13.480;2023-12-04T03:13:10;61.55;;;20.50;;
9310;SDS011;4694;52.464;13.480;2023-12-04T03:15:37;50.33;;;19.85;;
9310;SDS011;4694;52.464;13.480;2023-12-04T03:18:04;51.78;;;20.85;;
9310;SDS011;4694;52.464;13.480;2023-12-04T03:20:31;53.10;;;21.63;;
9310;SDS011;4694;52.464;13.480;2023-12-04T03:22:58;52.97;;;21.55;;
9310;SDS011;4694;52.464;13.480;2023-12-04T03:25:25;58.28;;;24.10;;
9310;SDS011;4694;52.464;13.480;2023-12-04T03:27:52;58.17;;;22.13;;
9310;SDS011;4694;52.464;13.480;2023-12-04T03:30:19;52.00;;;21.90;;
9310;SDS011;4694;52.464;13.480;2023-12-04T03:32:46;58.42;;;20.40;;
9310;SDS011;4694;52.464;13.480;2023-12-04T03:35:13;63.80;;;24.48;;
9310;SDS011;4694;52.464;13.480;2023-12-04T03:37:39;52.78;;;25.67;;
9310;SDS011;4694;52.464;13.480;2023-12-04T03:40:06;59.05;;;21.58;;
9310;SDS011;4694;52.464;13.480;2023-12-04T03:42:33;54.53;;;21.75;;
9310;SDS011;4694;52.464;13.480;2023-12-04T03:45:00;49.45;;;20.83;;
9310;SDS011;4694;52.464;13.480;2023-12-04T03:47:28;48.67;;;21.42;;
9310;SDS011;4694;52.464;13.480;2023-12-04T03:49:55;51.17;;;21.02;;
9310;SDS011;4694;52.464;13.480;2023-12-04T03:52:21;43.35;;;19.95;;
9310;SDS011;4694;52.464;13.480;2023-12-04T03:54:48;53.05;;;23.40;;
9310;SDS011;4694;52.464;13.480;2023-12-04T03:57:15;49.20;;;21.90;;
9310;SDS011;4694;52.464;13.480;2023-12-04T03:59:41;47.55;;;20.58;;
9310;SDS011;4694;52.464;13.480;2023-12-04T04:02:10;38.90;;;20.10;;
9310;SDS011;4694;52.464;13.480;2023-12-04T04:04:37;47.65;;;19.17;;
9310;SDS011;4694;52.464;13.480;2023-12-04T04:07:04;55.80;;;22.35;;
9310;SDS011;4694;52.464;13.480;2023-12-04T04:09:31;69.57;;;22.92;;
9310;SDS011;4694;52.464;13.480;2023-12-04T04:11:58;51.60;;;21.80;;
9310;SDS011;4694;52.464;13.480;2023-12-04T04:14:24;55.45;;;22.30;;
9310;SDS011;4694;52.464;13.480;2023-12-04T04:16:51;49.95;;;22.73;;
9310;SDS011;4694;52.464;13.480;2023-12-04T04:19:18;50.08;;;19.30;;
9310;SDS011;4694;52.464;13.480;2023-12-04T04:21:46;49.22;;;17.17;;
9310;SDS011;4694;52.464;13.480;2023-12-04T04:24:12;47.03;;;18.17;;
9310;SDS011;4694;52.464;13.480;2023-12-04T04:26:39;53.38;;;21.20;;
9310;SDS011;4694;52.464;13.480;2023-12-04T04:29:06;50.92;;;22.23;;
9310;SDS011;4694;52.464;13.480;2023-12-04T04:31:33;48.45;;;21.88;;
9310;SDS011;4694;52.464;13.480;2023-12-04T04:33:59;49.22;;;19.88;;
9310;SDS011;4694;52.464;13.480;2023-12-04T04:36:26;48.28;;;21.70;;
9310;SDS011;4694;52.464;13.480;2023-12-04T04:38:54;45.72;;;21.35;;
9310;SDS011;4694;52.464;13.480;2023-12-04T04:41:21;52.75;;;19.40;;
9310;SDS011;4694;52.464;13.480;2023-12-04T04:43:48;45.33;;;21.02;;
9310;SDS011;4694;52.464;13.480;2023-12-04T04:46:14;47.80;;;20.92;;
9310;SDS011;4694;52.464;13.480;2023-12-04T04:48:41;45.17;;;16.13;;
9310;SDS011;4694;52.464;13.480;2023-12-04T04:51:07;47.80;;;20.60;;
9310;SDS011;4694;52.464;13.480;2023-12-04T04:53:34;49.60;;;19.63;;
9310;SDS011;4694;52.464;13.480;2023-12-04T04:56:03;50.15;;;21.60;;
9310;SDS011;4694;52.464;13.480;2023-12-04T04:58:30;41.03;;;17.85;;
9310;SDS011;4694;52.464;13.480;2023-12-04T05:00:56;44.22;;;19.92;;
9310;SDS011;4694;52.464;13.480;2023-12-04T05:03:23;41.35;;;17.42;;
9310;SDS011;4694;52.464;13.480;2023-12-04T05:05:51;47.15;;;18.70;;
9310;SDS011;4694;52.464;13.480;2023-12-04T05:08:18;46.63;;;18.70;;
9310;SDS011;4694;52.464;13.480;2023-12-04T05:10:44;54.92;;;23.05;;
9310;SDS011;4694;52.464;13.480;2023-12-04T05:13:12;40.50;;;19.92;;
9310;SDS011;4694;52.464;13.480;2023-12-04T05:15:39;53.13;;;19.42;;
9310;SDS011;4694;52.464;13.480;2023-12-04T05:18:05;49.38;;;20.30;;
9310;SDS011;4694;52.464;13.480;2023-12-04T05:20:32;50.78;;;18.55;;
9310;SDS011;4694;52.464;13.480;2023-12-04T05:22:59;50.28;;;19.35;;
9310;SDS011;4694;52.464;13.480;2023-12-04T05:25:25;48.88;;;17.40;;
9310;SDS011;4694;52.464;13.480;2023-12-04T05:27:52;51.28;;;19.98;;
9310;SDS011;4694;52.464;13.480;2023-12-04T05:30:20;49.47;;;20.30;;
9310;SDS011;4694;52.464;13.480;2023-12-04T05:32:46;45.35;;;19.08;;
9310;SDS011;4694;52.464;13.480;2023-12-04T05:35:14;49.72;;;20.30;;
9310;SDS011;4694;52.464;13.480;2023-12-04T05:37:41;43.42;;;16.83;;
9310;SDS011;4694;52.464;13.480;2023-12-04T05:40:08;46.55;;;18.52;;
9310;SDS011;4694;52.464;13.480;2023-12-04T05:42:36;47.83;;;19.20;;
9310;SDS011;4694;52.464;13.480;2023-12-04T05:45:03;48.05;;;19.52;;
9310;SDS011;4694;52.464;13.480;2023-12-04T05:47:31;49.97;;;20.00;;
9310;SDS011;4694;52.464;13.480;2023-12-04T05:49:58;44.50;;;20.27;;
9310;SDS011;4694;52.464;13.480;2023-12-04T05:52:25;53.35;;;21.63;;
9310;SDS011;4694;52.464;13.480;2023-12-04T05:54:51;46.92;;;19.83;;
9310;SDS011;4694;52.464;13.480;2023-12-04T05:57:18;48.75;;;19.80;;
9310;SDS011;4694;52.464;13.480;2023-12-04T05:59:45;50.08;;;18.88;;
9310;SDS011;4694;52.464;13.480;2023-12-04T06:02:11;50.20;;;23.23;;
9310;SDS011;4694;52.464;13.480;2023-12-04T06:04:41;49.45;;;21.15;;
9310;SDS011;4694;52.464;13.480;2023-12-04T06:07:08;48.28;;;19.50;;
9310;SDS011;4694;52.464;13.480;2023-12-04T06:09:35;44.28;;;20.88;;
9310;SDS011;4694;52.464;13.480;2023-12-04T06:12:02;53.33;;;21.50;;
9310;SDS011;4694;52.464;13.480;2023-12-04T06:14:33;50.97;;;26.08;;
9310;SDS011;4694;52.464;13.480;2023-12-04T06:16:59;51.60;;;21.15;;
9310;SDS011;4694;52.464;13.480;2023-12-04T06:19:27;50.90;;;24.60;;
9310;SDS011;4694;52.464;13.480;2023-12-04T06:21:55;51.92;;;23.67;;
9310;SDS011;4694;52.464;13.480;2023-12-04T06:24:22;49.38;;;19.70;;
9310;SDS011;4694;52.464;13.480;2023-12-04T06:26:50;45.00;;;22.10;;
9310;SDS011;4694;52.464;13.480;2023-12-04T06:29:18;48.05;;;22.25;;
9310;SDS011;4694;52.464;13.480;2023-12-04T06:31:45;44.28;;;19.80;;
9310;SDS011;4694;52.464;13.480;2023-12-04T06:34:12;48.90;;;20.38;;
9310;SDS011;4694;52.464;13.480;2023-12-04T06:36:39;47.40;;;19.02;;
9310;SDS011;4694;52.464;13.480;2023-12-04T06:39:09;49.83;;;22.10;;
9310;SDS011;4694;52.464;13.480;2023-12-04T06:41:36;51.38;;;22.63;;
9310;SDS011;4694;52.464;13.480;2023-12-04T06:44:04;47.83;;;20.73;;
9310;SDS011;4694;52.464;13.480;2023-12-04T06:46:32;50.00;;;22.00;;
9310;SDS011;4694;52.464;13.480;2023-12-04T06:49:03;53.10;;;21.15;;
9310;SDS011;4694;52.464;13.480;2023-12-04T06:51:31;51.63;;;21.50;;
9310;SDS011;4694;52.464;13.480;2023-12-04T06:53:57;60.17;;;26.27;;
9310;SDS011;4694;52.464;13.480;2023-12-04T06:56:25;55.40;;;22.40;;
9310;SDS011;4694;52.464;13.480;2023-12-04T06:58:52;53.67;;;21.48;;
9310;SDS011;4694;52.464;13.480;2023-12-04T07:01:19;47.65;;;18.73;;
9310;SDS011;4694;52.464;13.480;2023-12-04T07:03:46;44.90;;;19.65;;
9310;SDS011;4694;52.464;13.480;2023-12-04T07:06:13;44.28;;;18.45;;
9310;SDS011;4694;52.464;13.480;2023-12-04T07:08:40;39.88;;;18.55;;
9310;SDS011;4694;52.464;13.480;2023-12-04T07:11:07;45.35;;;19.15;;
9310;SDS011;4694;52.464;13.480;2023-12-04T07:13:35;44.22;;;20.70;;
9310;SDS011;4694;52.464;13.480;2023-12-04T07:16:02;47.97;;;20.10;;
9310;SDS011;4694;52.464;13.480;2023-12-04T07:18:29;45.28;;;19.50;;
9310;SDS011;4694;52.464;13.480;2023-12-04T07:20:56;41.45;;;19.42;;
9310;SDS011;4694;52.464;13.480;2023-12-04T07:23:22;43.67;;;19.08;;
9310;SDS011;4694;52.464;13.480;2023-12-04T07:25:49;49.10;;;20.40;;
9310;SDS011;4694;52.464;13.480;2023-12-04T07:28:16;43.90;;;19.92;;
9310;SDS011;4694;52.464;13.480;2023-12-04T07:30:44;37.38;;;18.80;;
9310;SDS011;4694;52.464;13.480;2023-12-04T07:33:11;39.28;;;17.38;;
9310;SDS011;4694;52.464;13.480;2023-12-04T07:35:39;38.65;;;19.40;;
9310;SDS011;4694;52.464;13.480;2023-12-04T07:38:06;45.17;;;19.42;;
9310;SDS011;4694;52.464;13.480;2023-12-04T07:40:32;39.78;;;18.25;;
9310;SDS011;4694;52.464;13.480;2023-12-04T07:42:59;46.88;;;17.65;;
9310;SDS011;4694;52.464;13.480;2023-12-04T07:45:26;32.47;;;14.85;;
9310;SDS011;4694;52.464;13.480;2023-12-04T07:47:54;45.25;;;19.77;;
9310;SDS011;4694;52.464;13.480;2023-12-04T07:50:21;39.78;;;19.35;;
9310;SDS011;4694;52.464;13.480;2023-12-04T07:52:47;42.05;;;16.98;;
9310;SDS011;4694;52.464;13.480;2023-12-04T07:55:14;41.33;;;18.35;;
9310;SDS011;4694;52.464;13.480;2023-12-04T07:57:41;36.67;;;15.38;;
9310;SDS011;4694;52.464;13.480;2023-12-04T08:00:07;35.75;;;16.00;;
9310;SDS011;4694;52.464;13.480;2023-12-04T08:02:34;32.60;;;17.20;;
9310;SDS011;4694;52.464;13.480;2023-12-04T08:05:02;44.20;;;18.52;;
9310;SDS011;4694;52.464;13.480;2023-12-04T08:07:30;44.10;;;19.60;;
9310;SDS011;4694;52.464;13.480;2023-12-04T08:09:57;38.05;;;16.88;;
9310;SDS011;4694;52.464;13.480;2023-12-04T08:12:24;35.17;;;16.88;;
9310;SDS011;4694;52.464;13.480;2023-12-04T08:14:52;38.95;;;17.90;;
9310;SDS011;4694;52.464;13.480;2023-12-04T08:17:18;40.95;;;17.52;;
9310;SDS011;4694;52.464;13.480;2023-12-04T08:19:45;37.80;;;16.88;;
9310;SDS011;4694;52.464;13.480;2023-12-04T08:22:13;43.95;;;19.50;;
9310;SDS011;4694;52.464;13.480;2023-12-04T08:24:40;37.17;;;17.75;;
9310;SDS011;4694;52.464;13.480;2023-12-04T08:27:07;36.65;;;16.48;;
9310;SDS011;4694;52.464;13.480;2023-12-04T08:29:33;33.20;;;16.17;;
9310;SDS011;4694;52.464;13.480;2023-12-04T08:32:00;36.63;;;15.65;;
9310;SDS011;4694;52.464;13.480;2023-12-04T08:34:27;34.88;;;15.38;;
9310;SDS011;4694;52.464;13.480;2023-12-04T08:36:53;35.05;;;16.67;;
9310;SDS011;4694;52.464;13.480;2023-12-04T08:39:21;37.88;;;18.35;;
9310;SDS011;4694;52.464;13.480;2023-12-04T08:41:48;37.33;;;16.30;;
9310;SDS011;4694;52.464;13.480;2023-12-04T08:44:15;37.13;;;18.65;;
9310;SDS011;4694;52.464;13.480;2023-12-04T08:46:43;50.40;;;19.10;;
9310;SDS011;4694;52.464;13.480;2023-12-04T08:49:10;34.45;;;16.05;;
9310;SDS011;4694;52.464;13.480;2023-12-04T08:51:37;36.65;;;15.80;;
9310;SDS011;4694;52.464;13.480;2023-12-04T08:54:03;33.53;;;15.68;;
9310;SDS011;4694;52.464;13.480;2023-12-04T08:56:32;30.70;;;15.73;;
9310;SDS011;4694;52.464;13.480;2023-12-04T08:58:58;37.88;;;17.23;;
9310;SDS011;4694;52.464;13.480;2023-12-04T09:01:25;43.00;;;17.05;;
9310;SDS011;4694;52.464;13.480;2023-12-04T09:03:52;30.40;;;15.20;;
9310;SDS011;4694;52.464;13.480;2023-12-04T09:06:20;38.50;;;18.40;;
9310;SDS011;4694;52.464;13.480;2023-12-04T09:08:46;31.10;;;15.00;;
9310;SDS011;4694;52.464;13.480;2023-12-04T09:11:13;34.08;;;14.77;;
9310;SDS011;4694;52.464;13.480;2023-12-04T09:13:41;44.65;;;16.95;;
9310;SDS011;4694;52.464;13.480;2023-12-04T09:16:08;31.58;;;14.98;;
9310;SDS011;4694;52.464;13.480;2023-12-04T09:18:35;33.85;;;18.10;;
9310;SDS011;4694;52.464;13.480;2023-12-04T09:21:02;31.48;;;15.52;;
9310;SDS011;4694;52.464;13.480;2023-12-04T09:23:29;33.28;;;16.42;;
9310;SDS011;4694;52.464;13.480;2023-12-04T09:25:56;28.13;;;13.88;;
9310;SDS011;4694;52.464;13.480;2023-12-04T09:28:23;30.30;;;14.85;;
9310;SDS011;4694;52.464;13.480;2023-12-04T09:30:51;29.73;;;15.15;;
9310;SDS011;4694;52.464;13.480;2023-12-04T09:33:18;28.38;;;14.40;;
9310;SDS011;4694;52.464;13.480;2023-12-04T09:35:45;33.15;;;15.75;;
9310;SDS011;4694;52.464;13.480;2023-12-04T09:38:11;34.05;;;15.18;;
9310;SDS011;4694;52.464;13.480;2023-12-04T09:40:38;27.42;;;15.85;;
9310;SDS011;4694;52.464;13.480;2023-12-04T09:43:05;31.73;;;15.43;;
9310;SDS011;4694;52.464;13.480;2023-12-04T09:45:32;33.88;;;17.63;;
9310;SDS011;4694;52.464;13.480;2023-12-04T09:48:00;32.80;;;14.43;;
9310;SDS011;4694;52.464;13.480;2023-12-04T09:50:30;25.20;;;11.88;;
9310;SDS011;4694;52.464;13.480;2023-12-04T09:52:57;28.05;;;13.13;;
9310;SDS011;4694;52.464;13.480;2023-12-04T09:55:26;26.38;;;12.13;;
9310;SDS011;4694;52.464;13.480;2023-12-04T09:57:53;32.03;;;13.30;;
9310;SDS011;4694;52.464;13.480;2023-12-04T10:00:22;28.02;;;14.10;;
9310;SDS011;4694;52.464;13.480;2023-12-04T10:02:50;34.08;;;13.82;;
9310;SDS011;4694;52.464;13.480;2023-12-04T10:05:18;30.10;;;15.07;;
9310;SDS011;4694;52.464;13.480;2023-12-04T10:07:46;26.27;;;13.98;;
9310;SDS011;4694;52.464;13.480;2023-12-04T10:10:13;25.50;;;13.68;;
9310;SDS011;4694;52.464;13.480;2023-12-04T10:12:39;29.88;;;16.75;;
9310;SDS011;4694;52.464;13.480;2023-12-04T10:15:07;31.38;;;14.50;;
9310;SDS011;4694;52.464;13.480;2023-12-04T10:17:35;27.98;;;12.70;;
9310;SDS011;4694;52.464;13.480;2023-12-04T10:20:06;28.00;;;13.65;;
9310;SDS011;4694;52.464;13.480;2023-12-04T10:22:39;26.23;;;13.40;;
9310;SDS011;4694;52.464;13.480;2023-12-04T10:25:18;34.63;;;14.93;;
9310;SDS011;4694;52.464;13.480;2023-12-04T10:27:45;25.15;;;12.75;;
9310;SDS011;4694;52.464;13.480;2023-12-04T10:30:21;29.48;;;13.70;;
9310;SDS011;4694;52.464;13.480;2023-12-04T10:32:49;25.30;;;13.15;;
9310;SDS011;4694;52.464;13.480;2023-12-04T10:35:21;25.55;;;13.43;;
9310;SDS011;4694;52.464;13.480;2023-12-04T10:37:50;23.45;;;12.48;;
9310;SDS011;4694;52.464;13.480;2023-12-04T10:40:23;28.80;;;15.65;;
9310;SDS011;4694;52.464;13.480;2023-12-04T10:42:51;23.42;;;13.25;;
9310;SDS011;4694;52.464;13.480;2023-12-04T10:45:18;17.40;;;10.57;;
9310;SDS011;4694;52.464;13.480;2023-12-04T10:47:47;26.38;;;13.82;;
9310;SDS011;4694;52.464;13.480;2023-12-04T10:50:16;23.33;;;11.55;;
9310;SDS011;4694;52.464;13.480;2023-12-04T10:52:43;24.92;;;13.05;;
9310;SDS011;4694;52.464;13.480;2023-12-04T10:55:15;21.73;;;12.82;;
9310;SDS011;4694;52.464;13.480;2023-12-04T11:00:09;27.17;;;12.23;;
9310;SDS011;4694;52.464;13.480;2023-12-04T11:02:42;20.45;;;10.57;;
9310;SDS011;4694;52.464;13.480;2023-12-04T11:05:15;22.65;;;11.00;;
9310;SDS011;4694;52.464;13.480;2023-12-04T11:07:46;23.00;;;12.50;;
9310;SDS011;4694;52.464;13.480;2023-12-04T11:10:17;31.20;;;12.65;;
9310;SDS011;4694;52.464;13.480;2023-12-04T11:12:49;26.67;;;12.48;;
9310;SDS011;4694;52.464;13.480;2023-12-04T11:15:23;23.08;;;11.60;;
9310;SDS011;4694;52.464;13.480;2023-12-04T11:17:51;23.05;;;11.00;;
9310;SDS011;4694;52.464;13.480;2023-12-04T11:20:25;27.30;;;11.55;;
9310;SDS011;4694;52.464;13.480;2023-12-04T11:22:55;25.70;;;12.20;;
9310;SDS011;4694;52.464;13.480;2023-12-04T11:25:26;19.38;;;10.35;;
9310;SDS011;4694;52.464;13.480;2023-12-04T11:27:54;23.85;;;10.75;;
9310;SDS011;4694;52.464;13.480;2023-12-04T11:30:22;24.92;;;14.15;;
9310;SDS011;4694;52.464;13.480;2023-12-04T11:32:49;19.00;;;9.25;;
9310;SDS011;4694;52.464;13.480;2023-12-04T11:35:17;23.73;;;11.55;;
9310;SDS011;4694;52.464;13.480;2023-12-04T11:37:44;23.38;;;11.23;;
9310;SDS011;4694;52.464;13.480;2023-12-04T11:40:12;23.95;;;11.20;;
9310;SDS011;4694;52.464;13.480;2023-12-04T11:42:43;21.77;;;12.63;;
9310;SDS011;4694;52.464;13.480;2023-12-04T11:45:10;20.00;;;10.32;;
9310;SDS011;4694;52.464;13.480;2023-12-04T11:47:49;22.27;;;10.48;;
9310;SDS011;4694;52.464;13.480;2023-12-04T11:50:16;23.63;;;9.57;;
9310;SDS011;4694;52.464;13.480;2023-12-04T11:52:45;19.58;;;11.05;;
9310;SDS011;4694;52.464;13.480;2023-12-04T11:55:15;22.98;;;12.20;;
9310;SDS011;4694;52.464;13.480;2023-12-04T11:57:44;23.35;;;12.45;;
9310;SDS011;4694;52.464;13.480;2023-12-04T12:00:13;21.15;;;10.15;;
9310;SDS011;4694;52.464;13.480;2023-12-04T12:02:47;23.73;;;11.48;;
9310;SDS011;4694;52.464;13.480;2023-12-04T12:05:27;22.45;;;9.75;;
9310;SDS011;4694;52.464;13.480;2023-12-04T12:07:54;22.00;;;11.30;;
9310;SDS011;4694;52.464;13.480;2023-12-04T12:10:21;26.30;;;11.93;;
9310;SDS011;4694;52.464;13.480;2023-12-04T12:12:49;18.05;;;8.52;;
9310;SDS011;4694;52.464;13.480;2023-12-04T12:15:16;21.15;;;10.38;;
9310;SDS011;4694;52.464;13.480;2023-12-04T12:17:43;20.80;;;10.38;;
9310;SDS011;4694;52.464;13.480;2023-12-04T12:20:10;20.50;;;10.45;;
9310;SDS011;4694;52.464;13.480;2023-12-04T12:22:38;23.25;;;10.43;;
9310;SDS011;4694;52.464;13.480;2023-12-04T12:25:06;26.10;;;11.07;;
9310;SDS011;4694;52.464;13.480;2023-12-04T12:27:34;21.70;;;11.10;;
9310;SDS011;4694;52.464;13.480;2023-12-04T12:30:03;20.75;;;10.80;;
9310;SDS011;4694;52.464;13.480;2023-12-04T12:32:31;24.35;;;10.48;;
9310;SDS011;4694;52.464;13.480;2023-12-04T12:34:58;22.38;;;10.30;;
9310;SDS011;4694;52.464;13.480;2023-12-04T12:37:25;19.13;;;10.52;;
9310;SDS011;4694;52.464;13.480;2023-12-04T12:39:52;21.20;;;11.02;;
9310;SDS011;4694;52.464;13.480;2023-12-04T12:42:22;22.10;;;9.80;;
9310;SDS011;4694;52.464;13.480;2023-12-04T12:44:49;19.58;;;9.63;;
9310;SDS011;4694;52.464;13.480;2023-12-04T12:47:17;19.45;;;9.20;;
9310;SDS011;4694;52.464;13.480;2023-12-04T12:49:44;21.77;;;10.95;;
9310;SDS011;4694;52.464;13.480;2023-12-04T12:52:11;19.65;;;10.93;;
9310;SDS011;4694;52.464;13.480;2023-12-04T12:54:38;18.48;;;11.02;;
9310;SDS011;4694;52.464;13.480;2023-12-04T12:57:06;18.88;;;9.95;;
9310;SDS011;4694;52.464;13.480;2023-12-04T12:59:33;19.40;;;10.88;;
9310;SDS011;4694;52.464;13.480;2023-12-04T13:02:00;27.30;;;12.07;;
9310;SDS011;4694;52.464;13.480;2023-12-04T13:04:34;22.92;;;9.98;;
9310;SDS011;4694;52.464;13.480;2023-12-04T13:07:01;17.90;;;10.40;;
9310;SDS011;4694;52.464;13.480;2023-12-04T13:09:28;21.27;;;12.68;;
9310;SDS011;4694;52.464;13.480;2023-12-04T13:11:56;20.60;;;11.18;;
9310;SDS011;4694;52.464;13.480;2023-12-04T13:14:24;19.42;;;9.98;;
9310;SDS011;4694;52.464;13.480;2023-12-04T13:16:51;21.05;;;10.27;;
9310;SDS011;4694;52.464;13.480;2023-12-04T13:19:19;23.13;;;13.05;;
9310;SDS011;4694;52.464;13.480;2023-12-04T13:21:47;22.75;;;9.48;;
9310;SDS011;4694;52.464;13.480;2023-12-04T13:24:14;18.63;;;10.30;;
9310;SDS011;4694;52.464;13.480;2023-12-04T13:26:42;21.05;;;11.43;;
9310;SDS011;4694;52.464;13.480;2023-12-04T13:29:09;21.70;;;10.30;;
9310;SDS011;4694;52.464;13.480;2023-12-04T13:31:36;24.20;;;11.95;;
9310;SDS011;4694;52.464;13.480;2023-12-04T13:34:03;16.48;;;10.55;;
9310;SDS011;4694;52.464;13.480;2023-12-04T13:36:31;19.75;;;11.73;;
9310;SDS011;4694;52.464;13.480;2023-12-04T13:38:59;20.88;;;10.15;;
9310;SDS011;4694;52.464;13.480;2023-12-04T13:41:26;18.17;;;10.43;;
9310;SDS011;4694;52.464;13.480;2023-12-04T13:44:11;22.38;;;11.40;;
9310;SDS011;4694;52.464;13.480;2023-12-04T13:46:40;22.40;;;9.97;;
9310;SDS011;4694;52.464;13.480;2023-12-04T13:49:07;19.50;;;10.90;;
9310;SDS011;4694;52.464;13.480;2023-12-04T13:51:33;20.70;;;9.20;;
9310;SDS011;4694;52.464;13.480;2023-12-04T13:54:06;22.60;;;11.65;;
9310;SDS011;4694;52.464;13.480;2023-12-04T13:56:45;23.45;;;10.05;;
9310;SDS011;4694;52.464;13.480;2023-12-04T13:59:18;31.08;;;12.98;;
9310;SDS011;4694;52.464;13.480;2023-12-04T14:01:46;20.23;;;11.27;;
9310;SDS011;4694;52.464;13.480;2023-12-04T14:04:15;21.98;;;11.35;;
9310;SDS011;4694;52.464;13.480;2023-12-04T14:06:42;18.73;;;10.45;;
9310;SDS011;4694;52.464;13.480;2023-12-04T14:09:11;24.73;;;10.45;;
9310;SDS011;4694;52.464;13.480;2023-12-04T14:11:40;22.83;;;11.50;;
9310;SDS011;4694;52.464;13.480;2023-12-04T14:14:09;21.95;;;12.13;;
9310;SDS011;4694;52.464;13.480;2023-12-04T14:16:36;19.52;;;9.70;;
9310;SDS011;4694;52.464;13.480;2023-12-04T14:19:02;22.52;;;11.23;;
9310;SDS011;4694;52.464;13.480;2023-12-04T14:21:29;22.85;;;10.52;;
9310;SDS011;4694;52.464;13.480;2023-12-04T14:23:56;21.90;;;12.15;;
9310;SDS011;4694;52.464;13.480;2023-12-04T14:26:24;24.65;;;11.20;;
9310;SDS011;4694;52.464;13.480;2023-12-04T14:28:51;18.50;;;9.00;;
9310;SDS011;4694;52.464;13.480;2023-12-04T14:31:17;26.85;;;12.98;;
9310;SDS011;4694;52.464;13.480;2023-12-04T14:33:44;21.08;;;11.75;;
9310;SDS011;4694;52.464;13.480;2023-12-04T14:36:11;23.15;;;12.88;;
9310;SDS011;4694;52.464;13.480;2023-12-04T14:38:38;20.98;;;10.38;;
9310;SDS011;4694;52.464;13.480;2023-12-04T14:41:05;24.80;;;12.85;;